Aeroporto :
LOGIN :

Iscrizione | Disclaimer

   EN    FR    IT 

 










Sommario :    VFR   VFR Marginale   IFR   IFR Intensivo   IFR Molto Intensivo
Visibilità : 
Base nubi : 
>= 8 km
>= 3000ft
5 / 8 km
1000 / 3000 ft
1500m / 5 km
500 / 1000 ft
800 / 1500m
200 / 500 ft
< 800m
< 200 ft
Simboli :   Temporali  Nebbia  Neve Forte  Precipitazioni Forti  Vento > 20 kt
SIGMETs :   Varie  Temporali  Ghiacco  Turbolenza  Onda orograficha  Ceneri Vulcaniche






- Altitudine del aeroporto : 240 ft
- Codice IATA : VLC


LEVC - Valencia Manises

ULTIMO METAR :
  • 111800Z 08006KT 050V120 9999 FEW024 27/21 Q1017 NOSIG

METARs OBSOLETI :
  • 111730Z 09008KT 050V140 9999 SCT025 27/21 Q1017 NOSIG
  • 111700Z 08008KT 050V130 9999 SCT025 28/21 Q1017 NOSIG
  • 111630Z 08008KT 030V120 9999 SCT025 28/21 Q1017 NOSIG
  • 111600Z 08008KT 030V140 9999 SCT025 29/21 Q1018 NOSIG
  • 111530Z 09010KT 050V130 9999 SCT025 29/21 Q1017 NOSIG

TAF TAF LEVC
Valido dal 11 a 18 ore il 12 a 18 ore UTC


111700Z 1118/1218 08010KT 9999 FEW020 TX30/1212Z TN20/1206Z
BECMG 1119/1121 VRB04KT
BECMG 1208/1210 11010KT



MetMap, La meteo Aeronautica in un colpo d'occhio ! - Copyright ORBIFLY Dicembre 2007 - Disclaimer

ORBIFLY MET'MAP TEAM :

Programmazione e sviluppo : Alexandra Zaïnal
Concezione : Baudouin d'Aumeries
Aiuto per la programmazione : Marc-Olivier Méhu
Supporto tecnico e logistico : Manuel Goepfert
Aiuto per la traduzione : Arnaldo La Scala

Contatto : metmap@orbifly.com




FONTI E CREDITI :

   NOAA